sensor_id;sensor_type;location;lat;lon;timestamp;P1;durP1;ratioP1;P2;durP2;ratioP2
20928;SDS011;21895;47.072;15.132;2023-10-31T00:02:02;6.13;;;2.90;;
20928;SDS011;21895;47.072;15.132;2023-10-31T00:04:29;4.80;;;2.93;;
20928;SDS011;21895;47.072;15.132;2023-10-31T00:06:55;5.67;;;2.83;;
20928;SDS011;21895;47.072;15.132;2023-10-31T00:09:22;8.13;;;3.17;;
20928;SDS011;21895;47.072;15.132;2023-10-31T00:11:48;5.27;;;2.60;;
20928;SDS011;21895;47.072;15.132;2023-10-31T00:14:16;5.87;;;3.30;;
20928;SDS011;21895;47.072;15.132;2023-10-31T00:16:56;7.17;;;3.17;;
20928;SDS011;21895;47.072;15.132;2023-10-31T00:19:24;5.63;;;3.10;;
20928;SDS011;21895;47.072;15.132;2023-10-31T00:21:50;4.80;;;3.00;;
20928;SDS011;21895;47.072;15.132;2023-10-31T00:24:17;5.20;;;2.23;;
20928;SDS011;21895;47.072;15.132;2023-10-31T00:26:43;14.73;;;2.30;;
20928;SDS011;21895;47.072;15.132;2023-10-31T00:29:10;6.17;;;2.70;;
20928;SDS011;21895;47.072;15.132;2023-10-31T00:31:37;5.07;;;2.07;;
20928;SDS011;21895;47.072;15.132;2023-10-31T00:34:06;5.27;;;2.63;;
20928;SDS011;21895;47.072;15.132;2023-10-31T00:36:34;4.10;;;2.63;;
20928;SDS011;21895;47.072;15.132;2023-10-31T00:39:00;6.53;;;2.47;;
20928;SDS011;21895;47.072;15.132;2023-10-31T00:41:27;7.40;;;2.60;;
20928;SDS011;21895;47.072;15.132;2023-10-31T00:43:53;7.13;;;2.40;;
20928;SDS011;21895;47.072;15.132;2023-10-31T00:46:20;4.97;;;2.30;;
20928;SDS011;21895;47.072;15.132;2023-10-31T00:48:47;3.63;;;2.50;;
20928;SDS011;21895;47.072;15.132;2023-10-31T00:51:14;14.03;;;3.07;;
20928;SDS011;21895;47.072;15.132;2023-10-31T00:53:40;8.53;;;3.60;;
20928;SDS011;21895;47.072;15.132;2023-10-31T00:56:07;7.27;;;3.47;;
20928;SDS011;21895;47.072;15.132;2023-10-31T00:58:34;8.43;;;3.10;;
20928;SDS011;21895;47.072;15.132;2023-10-31T01:01:00;4.90;;;2.87;;
20928;SDS011;21895;47.072;15.132;2023-10-31T01:03:27;6.20;;;2.93;;
20928;SDS011;21895;47.072;15.132;2023-10-31T01:05:54;5.20;;;2.70;;
20928;SDS011;21895;47.072;15.132;2023-10-31T01:08:20;5.30;;;2.60;;
20928;SDS011;21895;47.072;15.132;2023-10-31T01:10:47;5.17;;;2.57;;
20928;SDS011;21895;47.072;15.132;2023-10-31T01:13:14;3.87;;;2.53;;
20928;SDS011;21895;47.072;15.132;2023-10-31T01:15:40;5.43;;;2.80;;
20928;SDS011;21895;47.072;15.132;2023-10-31T01:18:07;4.47;;;2.70;;
20928;SDS011;21895;47.072;15.132;2023-10-31T01:20:33;4.23;;;2.27;;
20928;SDS011;21895;47.072;15.132;2023-10-31T01:23:00;4.80;;;2.73;;
20928;SDS011;21895;47.072;15.132;2023-10-31T01:25:27;3.77;;;2.33;;
20928;SDS011;21895;47.072;15.132;2023-10-31T01:27:53;10.17;;;2.47;;
20928;SDS011;21895;47.072;15.132;2023-10-31T01:30:20;13.87;;;2.37;;
20928;SDS011;21895;47.072;15.132;2023-10-31T01:32:46;7.77;;;3.00;;
20928;SDS011;21895;47.072;15.132;2023-10-31T01:35:13;5.90;;;3.17;;
20928;SDS011;21895;47.072;15.132;2023-10-31T01:37:40;5.90;;;2.67;;
20928;SDS011;21895;47.072;15.132;2023-10-31T01:40:07;3.80;;;2.33;;
20928;SDS011;21895;47.072;15.132;2023-10-31T01:42:37;9.53;;;2.87;;
20928;SDS011;21895;47.072;15.132;2023-10-31T01:45:04;7.67;;;2.80;;
20928;SDS011;21895;47.072;15.132;2023-10-31T01:47:32;5.90;;;2.47;;
20928;SDS011;21895;47.072;15.132;2023-10-31T01:49:58;5.13;;;2.57;;
20928;SDS011;21895;47.072;15.132;2023-10-31T01:52:26;3.57;;;2.60;;
20928;SDS011;21895;47.072;15.132;2023-10-31T01:54:53;6.30;;;2.60;;
20928;SDS011;21895;47.072;15.132;2023-10-31T01:57:21;7.90;;;2.87;;
20928;SDS011;21895;47.072;15.132;2023-10-31T01:59:48;6.63;;;2.90;;
20928;SDS011;21895;47.072;15.132;2023-10-31T02:02:15;4.83;;;2.70;;
20928;SDS011;21895;47.072;15.132;2023-10-31T02:04:42;4.07;;;2.30;;
20928;SDS011;21895;47.072;15.132;2023-10-31T02:07:08;4.77;;;2.23;;
20928;SDS011;21895;47.072;15.132;2023-10-31T02:09:35;5.80;;;2.70;;
20928;SDS011;21895;47.072;15.132;2023-10-31T02:12:02;4.40;;;2.70;;
20928;SDS011;21895;47.072;15.132;2023-10-31T02:14:29;3.90;;;2.30;;
20928;SDS011;21895;47.072;15.132;2023-10-31T02:16:55;6.07;;;2.90;;
20928;SDS011;21895;47.072;15.132;2023-10-31T02:19:22;4.97;;;2.53;;
20928;SDS011;21895;47.072;15.132;2023-10-31T02:21:48;4.43;;;2.70;;
20928;SDS011;21895;47.072;15.132;2023-10-31T02:24:15;5.60;;;2.97;;
20928;SDS011;21895;47.072;15.132;2023-10-31T02:26:41;6.13;;;3.40;;
20928;SDS011;21895;47.072;15.132;2023-10-31T02:29:08;6.27;;;3.00;;
20928;SDS011;21895;47.072;15.132;2023-10-31T02:31:34;5.17;;;2.97;;
20928;SDS011;21895;47.072;15.132;2023-10-31T02:34:01;5.03;;;2.60;;
20928;SDS011;21895;47.072;15.132;2023-10-31T02:36:28;5.07;;;2.60;;
20928;SDS011;21895;47.072;15.132;2023-10-31T02:38:54;6.57;;;2.50;;
20928;SDS011;21895;47.072;15.132;2023-10-31T02:41:21;13.43;;;2.63;;
20928;SDS011;21895;47.072;15.132;2023-10-31T02:43:48;7.67;;;2.57;;
20928;SDS011;21895;47.072;15.132;2023-10-31T02:46:15;4.10;;;2.50;;
20928;SDS011;21895;47.072;15.132;2023-10-31T02:48:42;4.93;;;2.20;;
20928;SDS011;21895;47.072;15.132;2023-10-31T02:51:08;6.53;;;2.27;;
20928;SDS011;21895;47.072;15.132;2023-10-31T02:53:35;5.00;;;2.87;;
20928;SDS011;21895;47.072;15.132;2023-10-31T02:56:02;11.77;;;3.33;;
20928;SDS011;21895;47.072;15.132;2023-10-31T02:58:29;7.83;;;2.77;;
20928;SDS011;21895;47.072;15.132;2023-10-31T03:00:55;4.03;;;2.67;;
20928;SDS011;21895;47.072;15.132;2023-10-31T03:03:22;8.23;;;2.40;;
20928;SDS011;21895;47.072;15.132;2023-10-31T03:05:48;3.57;;;1.90;;
20928;SDS011;21895;47.072;15.132;2023-10-31T03:08:15;5.90;;;2.50;;
20928;SDS011;21895;47.072;15.132;2023-10-31T03:10:47;4.57;;;2.77;;
20928;SDS011;21895;47.072;15.132;2023-10-31T03:13:16;10.47;;;2.93;;
20928;SDS011;21895;47.072;15.132;2023-10-31T03:15:43;5.43;;;3.10;;
20928;SDS011;21895;47.072;15.132;2023-10-31T03:18:11;8.97;;;3.13;;
20928;SDS011;21895;47.072;15.132;2023-10-31T03:20:40;11.50;;;3.00;;
20928;SDS011;21895;47.072;15.132;2023-10-31T03:23:09;10.13;;;2.93;;
20928;SDS011;21895;47.072;15.132;2023-10-31T03:25:35;9.03;;;3.83;;
20928;SDS011;21895;47.072;15.132;2023-10-31T03:28:02;7.93;;;3.60;;
20928;SDS011;21895;47.072;15.132;2023-10-31T03:30:28;6.43;;;3.40;;
20928;SDS011;21895;47.072;15.132;2023-10-31T03:32:55;9.43;;;3.50;;
20928;SDS011;21895;47.072;15.132;2023-10-31T03:35:21;8.33;;;3.73;;
20928;SDS011;21895;47.072;15.132;2023-10-31T03:37:48;10.40;;;4.37;;
20928;SDS011;21895;47.072;15.132;2023-10-31T03:40:15;8.63;;;3.33;;
20928;SDS011;21895;47.072;15.132;2023-10-31T03:42:41;13.10;;;3.90;;
20928;SDS011;21895;47.072;15.132;2023-10-31T03:45:08;8.23;;;3.30;;
20928;SDS011;21895;47.072;15.132;2023-10-31T03:47:35;6.87;;;3.00;;
20928;SDS011;21895;47.072;15.132;2023-10-31T03:50:01;10.40;;;3.23;;
20928;SDS011;21895;47.072;15.132;2023-10-31T03:52:28;9.50;;;4.03;;
20928;SDS011;21895;47.072;15.132;2023-10-31T03:54:55;6.50;;;3.77;;
20928;SDS011;21895;47.072;15.132;2023-10-31T03:57:22;8.37;;;3.97;;
20928;SDS011;21895;47.072;15.132;2023-10-31T03:59:48;5.13;;;3.27;;
20928;SDS011;21895;47.072;15.132;2023-10-31T04:02:15;6.12;;;3.12;;
20928;SDS011;21895;47.072;15.132;2023-10-31T04:04:41;13.60;;;3.95;;
20928;SDS011;21895;47.072;15.132;2023-10-31T04:07:09;8.33;;;3.27;;
20928;SDS011;21895;47.072;15.132;2023-10-31T04:09:36;7.93;;;3.70;;
20928;SDS011;21895;47.072;15.132;2023-10-31T04:12:02;6.57;;;3.57;;
20928;SDS011;21895;47.072;15.132;2023-10-31T04:14:29;5.47;;;2.83;;
20928;SDS011;21895;47.072;15.132;2023-10-31T04:16:56;6.53;;;3.13;;
20928;SDS011;21895;47.072;15.132;2023-10-31T04:19:23;4.07;;;2.77;;
20928;SDS011;21895;47.072;15.132;2023-10-31T04:21:49;7.13;;;2.73;;
20928;SDS011;21895;47.072;15.132;2023-10-31T04:24:16;5.87;;;3.33;;
20928;SDS011;21895;47.072;15.132;2023-10-31T04:26:42;6.80;;;2.90;;
20928;SDS011;21895;47.072;15.132;2023-10-31T04:29:09;6.60;;;3.13;;
20928;SDS011;21895;47.072;15.132;2023-10-31T04:31:35;6.45;;;2.95;;
20928;SDS011;21895;47.072;15.132;2023-10-31T04:34:09;4.70;;;2.73;;
20928;SDS011;21895;47.072;15.132;2023-10-31T04:36:39;5.35;;;2.72;;
20928;SDS011;21895;47.072;15.132;2023-10-31T04:39:05;7.30;;;2.80;;
20928;SDS011;21895;47.072;15.132;2023-10-31T04:41:32;8.67;;;2.87;;
20928;SDS011;21895;47.072;15.132;2023-10-31T04:43:58;11.25;;;3.30;;
20928;SDS011;21895;47.072;15.132;2023-10-31T04:46:25;5.70;;;2.80;;
20928;SDS011;21895;47.072;15.132;2023-10-31T04:48:54;6.13;;;2.77;;
20928;SDS011;21895;47.072;15.132;2023-10-31T04:51:21;9.17;;;3.40;;
20928;SDS011;21895;47.072;15.132;2023-10-31T04:53:47;4.33;;;2.77;;
20928;SDS011;21895;47.072;15.132;2023-10-31T04:56:14;10.13;;;3.20;;
20928;SDS011;21895;47.072;15.132;2023-10-31T04:58:45;7.87;;;3.00;;
20928;SDS011;21895;47.072;15.132;2023-10-31T05:01:12;6.90;;;3.67;;
20928;SDS011;21895;47.072;15.132;2023-10-31T05:03:39;6.83;;;3.17;;
20928;SDS011;21895;47.072;15.132;2023-10-31T05:06:06;10.70;;;2.93;;
20928;SDS011;21895;47.072;15.132;2023-10-31T05:08:33;9.00;;;3.57;;
20928;SDS011;21895;47.072;15.132;2023-10-31T05:10:59;5.13;;;2.87;;
20928;SDS011;21895;47.072;15.132;2023-10-31T05:13:26;9.97;;;3.67;;
20928;SDS011;21895;47.072;15.132;2023-10-31T05:15:52;6.53;;;3.03;;
20928;SDS011;21895;47.072;15.132;2023-10-31T05:18:19;11.43;;;3.00;;
20928;SDS011;21895;47.072;15.132;2023-10-31T05:20:46;7.97;;;3.87;;
20928;SDS011;21895;47.072;15.132;2023-10-31T05:23:13;8.70;;;3.57;;
20928;SDS011;21895;47.072;15.132;2023-10-31T05:25:39;6.20;;;2.73;;
20928;SDS011;21895;47.072;15.132;2023-10-31T05:28:06;5.03;;;2.73;;
20928;SDS011;21895;47.072;15.132;2023-10-31T05:30:32;6.53;;;3.20;;
20928;SDS011;21895;47.072;15.132;2023-10-31T05:32:59;13.93;;;3.13;;
20928;SDS011;21895;47.072;15.132;2023-10-31T05:35:26;4.50;;;2.83;;
20928;SDS011;21895;47.072;15.132;2023-10-31T05:37:52;5.80;;;3.23;;
20928;SDS011;21895;47.072;15.132;2023-10-31T05:40:19;7.07;;;3.00;;
20928;SDS011;21895;47.072;15.132;2023-10-31T05:42:48;11.50;;;4.23;;
20928;SDS011;21895;47.072;15.132;2023-10-31T05:45:14;13.98;;;4.68;;
20928;SDS011;21895;47.072;15.132;2023-10-31T05:47:41;7.95;;;3.50;;
20928;SDS011;21895;47.072;15.132;2023-10-31T05:50:07;10.77;;;4.73;;
20928;SDS011;21895;47.072;15.132;2023-10-31T05:52:35;11.00;;;4.90;;
20928;SDS011;21895;47.072;15.132;2023-10-31T05:55:02;6.67;;;4.07;;
20928;SDS011;21895;47.072;15.132;2023-10-31T05:57:29;13.88;;;4.60;;
20928;SDS011;21895;47.072;15.132;2023-10-31T05:59:55;11.67;;;4.07;;
20928;SDS011;21895;47.072;15.132;2023-10-31T06:02:22;8.70;;;3.97;;
20928;SDS011;21895;47.072;15.132;2023-10-31T06:04:48;9.95;;;3.67;;
20928;SDS011;21895;47.072;15.132;2023-10-31T06:07:15;9.07;;;4.55;;
20928;SDS011;21895;47.072;15.132;2023-10-31T06:09:41;10.23;;;4.20;;
20928;SDS011;21895;47.072;15.132;2023-10-31T06:12:08;13.17;;;3.77;;
20928;SDS011;21895;47.072;15.132;2023-10-31T06:14:35;8.73;;;4.40;;
20928;SDS011;21895;47.072;15.132;2023-10-31T06:17:02;9.73;;;3.92;;
20928;SDS011;21895;47.072;15.132;2023-10-31T06:19:33;9.43;;;4.70;;
20928;SDS011;21895;47.072;15.132;2023-10-31T06:22:00;10.38;;;4.62;;
20928;SDS011;21895;47.072;15.132;2023-10-31T06:24:27;9.68;;;4.53;;
20928;SDS011;21895;47.072;15.132;2023-10-31T06:26:54;9.68;;;3.97;;
20928;SDS011;21895;47.072;15.132;2023-10-31T06:29:20;14.40;;;4.57;;
20928;SDS011;21895;47.072;15.132;2023-10-31T06:32:15;6.95;;;4.18;;
20928;SDS011;21895;47.072;15.132;2023-10-31T06:34:41;12.33;;;4.47;;
20928;SDS011;21895;47.072;15.132;2023-10-31T06:37:08;8.95;;;4.15;;
20928;SDS011;21895;47.072;15.132;2023-10-31T06:39:34;9.90;;;4.32;;
20928;SDS011;21895;47.072;15.132;2023-10-31T06:42:01;14.35;;;5.30;;
20928;SDS011;21895;47.072;15.132;2023-10-31T06:44:27;7.68;;;3.83;;
20928;SDS011;21895;47.072;15.132;2023-10-31T06:46:54;9.20;;;4.30;;
20928;SDS011;21895;47.072;15.132;2023-10-31T06:49:21;10.80;;;4.00;;
20928;SDS011;21895;47.072;15.132;2023-10-31T06:51:49;8.32;;;4.18;;
20928;SDS011;21895;47.072;15.132;2023-10-31T06:54:15;6.20;;;3.75;;
20928;SDS011;21895;47.072;15.132;2023-10-31T06:56:42;10.20;;;4.50;;
20928;SDS011;21895;47.072;15.132;2023-10-31T06:59:09;14.17;;;4.33;;
20928;SDS011;21895;47.072;15.132;2023-10-31T07:01:35;10.48;;;4.47;;
20928;SDS011;21895;47.072;15.132;2023-10-31T07:04:03;12.15;;;4.65;;
20928;SDS011;21895;47.072;15.132;2023-10-31T07:06:30;7.68;;;4.40;;
20928;SDS011;21895;47.072;15.132;2023-10-31T07:08:57;9.73;;;4.33;;
20928;SDS011;21895;47.072;15.132;2023-10-31T07:11:25;8.88;;;4.05;;
20928;SDS011;21895;47.072;15.132;2023-10-31T07:13:52;10.30;;;4.45;;
20928;SDS011;21895;47.072;15.132;2023-10-31T07:16:19;8.43;;;3.97;;
20928;SDS011;21895;47.072;15.132;2023-10-31T07:18:45;7.12;;;3.35;;
20928;SDS011;21895;47.072;15.132;2023-10-31T07:21:12;8.43;;;4.20;;
20928;SDS011;21895;47.072;15.132;2023-10-31T07:23:38;8.82;;;3.30;;
20928;SDS011;21895;47.072;15.132;2023-10-31T07:26:05;10.03;;;3.80;;
20928;SDS011;21895;47.072;15.132;2023-10-31T07:28:31;8.63;;;3.93;;
20928;SDS011;21895;47.072;15.132;2023-10-31T07:30:58;8.87;;;4.30;;
20928;SDS011;21895;47.072;15.132;2023-10-31T07:33:26;6.90;;;3.40;;
20928;SDS011;21895;47.072;15.132;2023-10-31T07:35:53;8.18;;;3.67;;
20928;SDS011;21895;47.072;15.132;2023-10-31T07:38:19;7.60;;;4.03;;
20928;SDS011;21895;47.072;15.132;2023-10-31T07:40:46;9.20;;;4.13;;
20928;SDS011;21895;47.072;15.132;2023-10-31T07:43:14;7.12;;;3.37;;
20928;SDS011;21895;47.072;15.132;2023-10-31T07:45:41;11.00;;;4.30;;
20928;SDS011;21895;47.072;15.132;2023-10-31T07:48:08;6.57;;;3.97;;
20928;SDS011;21895;47.072;15.132;2023-10-31T07:50:35;9.63;;;4.07;;
20928;SDS011;21895;47.072;15.132;2023-10-31T07:53:02;12.35;;;4.72;;
20928;SDS011;21895;47.072;15.132;2023-10-31T07:55:28;10.40;;;4.43;;
20928;SDS011;21895;47.072;15.132;2023-10-31T07:57:55;7.70;;;4.00;;
20928;SDS011;21895;47.072;15.132;2023-10-31T08:00:21;8.43;;;4.13;;
20928;SDS011;21895;47.072;15.132;2023-10-31T08:02:48;10.07;;;4.57;;
20928;SDS011;21895;47.072;15.132;2023-10-31T08:05:15;8.85;;;3.90;;
20928;SDS011;21895;47.072;15.132;2023-10-31T08:07:41;6.10;;;3.67;;
20928;SDS011;21895;47.072;15.132;2023-10-31T08:10:08;6.28;;;3.92;;
20928;SDS011;21895;47.072;15.132;2023-10-31T08:12:35;12.95;;;4.80;;
20928;SDS011;21895;47.072;15.132;2023-10-31T08:15:01;8.82;;;4.80;;
20928;SDS011;21895;47.072;15.132;2023-10-31T08:17:28;11.85;;;5.35;;
20928;SDS011;21895;47.072;15.132;2023-10-31T08:19:55;15.35;;;6.57;;
20928;SDS011;21895;47.072;15.132;2023-10-31T08:22:21;9.37;;;4.23;;
20928;SDS011;21895;47.072;15.132;2023-10-31T08:24:48;9.70;;;4.70;;
20928;SDS011;21895;47.072;15.132;2023-10-31T08:27:14;9.63;;;4.07;;
20928;SDS011;21895;47.072;15.132;2023-10-31T08:29:41;7.85;;;3.78;;
20928;SDS011;21895;47.072;15.132;2023-10-31T08:32:08;6.93;;;3.87;;
20928;SDS011;21895;47.072;15.132;2023-10-31T08:34:34;8.33;;;3.87;;
20928;SDS011;21895;47.072;15.132;2023-10-31T08:37:04;7.73;;;4.00;;
20928;SDS011;21895;47.072;15.132;2023-10-31T08:39:30;11.63;;;3.97;;
20928;SDS011;21895;47.072;15.132;2023-10-31T08:41:57;14.30;;;5.87;;
20928;SDS011;21895;47.072;15.132;2023-10-31T08:44:25;15.43;;;7.13;;
20928;SDS011;21895;47.072;15.132;2023-10-31T08:46:52;14.18;;;5.68;;
20928;SDS011;21895;47.072;15.132;2023-10-31T08:49:19;11.73;;;4.90;;
20928;SDS011;21895;47.072;15.132;2023-10-31T08:51:45;8.98;;;4.50;;
20928;SDS011;21895;47.072;15.132;2023-10-31T08:54:12;12.40;;;4.95;;
20928;SDS011;21895;47.072;15.132;2023-10-31T08:56:38;12.00;;;5.72;;
20928;SDS011;21895;47.072;15.132;2023-10-31T08:59:05;16.98;;;6.10;;
20928;SDS011;21895;47.072;15.132;2023-10-31T09:01:31;10.10;;;5.20;;
20928;SDS011;21895;47.072;15.132;2023-10-31T09:03:59;13.15;;;5.32;;
20928;SDS011;21895;47.072;15.132;2023-10-31T09:06:26;16.43;;;7.03;;
20928;SDS011;21895;47.072;15.132;2023-10-31T09:08:53;14.87;;;5.90;;
20928;SDS011;21895;47.072;15.132;2023-10-31T09:11:19;12.80;;;5.17;;
20928;SDS011;21895;47.072;15.132;2023-10-31T09:13:46;3.83;;;2.15;;
20928;SDS011;21895;47.072;15.132;2023-10-31T09:16:12;4.57;;;1.60;;
20928;SDS011;21895;47.072;15.132;2023-10-31T09:18:39;1.33;;;1.00;;
20928;SDS011;21895;47.072;15.132;2023-10-31T09:21:05;4.40;;;1.57;;
20928;SDS011;21895;47.072;15.132;2023-10-31T09:23:32;1.87;;;1.30;;
20928;SDS011;21895;47.072;15.132;2023-10-31T09:25:59;4.33;;;1.97;;
20928;SDS011;21895;47.072;15.132;2023-10-31T09:28:25;4.60;;;2.00;;
20928;SDS011;21895;47.072;15.132;2023-10-31T09:30:52;3.30;;;1.70;;
20928;SDS011;21895;47.072;15.132;2023-10-31T09:33:18;4.50;;;2.00;;
20928;SDS011;21895;47.072;15.132;2023-10-31T09:35:45;0.70;;;0.50;;
20928;SDS011;21895;47.072;15.132;2023-10-31T09:38:12;0.70;;;0.40;;
20928;SDS011;21895;47.072;15.132;2023-10-31T09:40:38;1.00;;;0.50;;
20928;SDS011;21895;47.072;15.132;2023-10-31T09:43:05;1.58;;;0.35;;
20928;SDS011;21895;47.072;15.132;2023-10-31T09:45:32;0.57;;;0.40;;
20928;SDS011;21895;47.072;15.132;2023-10-31T09:47:58;0.30;;;0.30;;
20928;SDS011;21895;47.072;15.132;2023-10-31T09:50:28;1.10;;;0.40;;
20928;SDS011;21895;47.072;15.132;2023-10-31T09:52:56;0.93;;;0.27;;
20928;SDS011;21895;47.072;15.132;2023-10-31T09:55:25;0.90;;;0.53;;
20928;SDS011;21895;47.072;15.132;2023-10-31T09:57:52;0.37;;;0.37;;
20928;SDS011;21895;47.072;15.132;2023-10-31T10:00:19;0.73;;;0.50;;
20928;SDS011;21895;47.072;15.132;2023-10-31T10:02:46;3.10;;;0.77;;
20928;SDS011;21895;47.072;15.132;2023-10-31T10:05:13;0.60;;;0.60;;
20928;SDS011;21895;47.072;15.132;2023-10-31T10:07:43;1.03;;;0.40;;
20928;SDS011;21895;47.072;15.132;2023-10-31T10:10:11;0.30;;;0.10;;
20928;SDS011;21895;47.072;15.132;2023-10-31T10:12:40;0.10;;;0.10;;
20928;SDS011;21895;47.072;15.132;2023-10-31T10:15:09;0.13;;;0.13;;
20928;SDS011;21895;47.072;15.132;2023-10-31T10:17:37;6.40;;;0.43;;
20928;SDS011;21895;47.072;15.132;2023-10-31T10:20:05;0.10;;;0.10;;
20928;SDS011;21895;47.072;15.132;2023-10-31T10:22:37;0.27;;;0.20;;
20928;SDS011;21895;47.072;15.132;2023-10-31T10:25:08;0.20;;;0.20;;
20928;SDS011;21895;47.072;15.132;2023-10-31T10:27:37;0.40;;;0.40;;
20928;SDS011;21895;47.072;15.132;2023-10-31T10:30:04;0.63;;;0.50;;
20928;SDS011;21895;47.072;15.132;2023-10-31T10:32:33;0.57;;;0.57;;
20928;SDS011;21895;47.072;15.132;2023-10-31T10:35:00;1.40;;;0.90;;
20928;SDS011;21895;47.072;15.132;2023-10-31T10:37:27;0.87;;;0.43;;
20928;SDS011;21895;47.072;15.132;2023-10-31T10:39:56;3.97;;;1.50;;
20928;SDS011;21895;47.072;15.132;2023-10-31T10:42:44;6.07;;;2.57;;
20928;SDS011;21895;47.072;15.132;2023-10-31T10:45:12;7.63;;;1.90;;
20928;SDS011;21895;47.072;15.132;2023-10-31T10:47:47;0.70;;;0.30;;
20928;SDS011;21895;47.072;15.132;2023-10-31T10:50:19;0.23;;;0.20;;
20928;SDS011;21895;47.072;15.132;2023-10-31T10:52:54;0.13;;;0.10;;
20928;SDS011;21895;47.072;15.132;2023-10-31T10:55:51;0.50;;;0.40;;
20928;SDS011;21895;47.072;15.132;2023-10-31T10:58:37;0.37;;;0.20;;
20928;SDS011;21895;47.072;15.132;2023-10-31T11:01:19;0.30;;;0.20;;
20928;SDS011;21895;47.072;15.132;2023-10-31T11:03:46;0.20;;;0.20;;
20928;SDS011;21895;47.072;15.132;2023-10-31T11:06:13;0.30;;;0.20;;
20928;SDS011;21895;47.072;15.132;2023-10-31T11:08:40;0.40;;;0.40;;
20928;SDS011;21895;47.072;15.132;2023-10-31T11:11:09;0.20;;;0.20;;
20928;SDS011;21895;47.072;15.132;2023-10-31T11:13:37;0.30;;;0.20;;
20928;SDS011;21895;47.072;15.132;2023-10-31T11:16:06;0.52;;;0.32;;
20928;SDS011;21895;47.072;15.132;2023-10-31T11:18:41;0.50;;;0.40;;
20928;SDS011;21895;47.072;15.132;2023-10-31T11:21:09;0.67;;;0.30;;
20928;SDS011;21895;47.072;15.132;2023-10-31T11:23:35;0.97;;;0.40;;
20928;SDS011;21895;47.072;15.132;2023-10-31T11:26:02;0.97;;;0.53;;
20928;SDS011;21895;47.072;15.132;2023-10-31T11:28:29;0.25;;;0.25;;
20928;SDS011;21895;47.072;15.132;2023-10-31T11:30:58;0.40;;;0.30;;
20928;SDS011;21895;47.072;15.132;2023-10-31T11:33:27;0.90;;;0.30;;
20928;SDS011;21895;47.072;15.132;2023-10-31T11:36:00;0.15;;;0.15;;
20928;SDS011;21895;47.072;15.132;2023-10-31T11:38:35;0.30;;;0.30;;
20928;SDS011;21895;47.072;15.132;2023-10-31T11:41:04;0.80;;;0.73;;
20928;SDS011;21895;47.072;15.132;2023-10-31T11:43:35;1.30;;;0.73;;
20928;SDS011;21895;47.072;15.132;2023-10-31T11:46:23;6.23;;;0.90;;
20928;SDS011;21895;47.072;15.132;2023-10-31T11:48:51;0.53;;;0.40;;
20928;SDS011;21895;47.072;15.132;2023-10-31T11:51:19;0.70;;;0.50;;
20928;SDS011;21895;47.072;15.132;2023-10-31T11:53:46;0.40;;;0.20;;
20928;SDS011;21895;47.072;15.132;2023-10-31T11:56:18;1.73;;;0.60;;
20928;SDS011;21895;47.072;15.132;2023-10-31T11:58:56;5.90;;;2.77;;
20928;SDS011;21895;47.072;15.132;2023-10-31T12:01:29;71.93;;;24.00;;
20928;SDS011;21895;47.072;15.132;2023-10-31T12:03:56;10.17;;;3.57;;
20928;SDS011;21895;47.072;15.132;2023-10-31T12:06:23;4.77;;;2.13;;
20928;SDS011;21895;47.072;15.132;2023-10-31T12:08:49;2.53;;;1.30;;
20928;SDS011;21895;47.072;15.132;2023-10-31T12:11:17;2.00;;;0.50;;
20928;SDS011;21895;47.072;15.132;2023-10-31T12:13:56;0.70;;;0.60;;
20928;SDS011;21895;47.072;15.132;2023-10-31T12:16:28;0.73;;;0.70;;
20928;SDS011;21895;47.072;15.132;2023-10-31T12:18:58;1.13;;;0.60;;
20928;SDS011;21895;47.072;15.132;2023-10-31T12:24:39;0.53;;;0.40;;
20928;SDS011;21895;47.072;15.132;2023-10-31T12:27:05;1.10;;;0.57;;
20928;SDS011;21895;47.072;15.132;2023-10-31T12:29:32;0.50;;;0.40;;
20928;SDS011;21895;47.072;15.132;2023-10-31T12:31:58;0.53;;;0.33;;
20928;SDS011;21895;47.072;15.132;2023-10-31T12:34:25;1.70;;;0.70;;
20928;SDS011;21895;47.072;15.132;2023-10-31T12:36:52;2.00;;;1.13;;
20928;SDS011;21895;47.072;15.132;2023-10-31T12:39:21;1.63;;;0.83;;
20928;SDS011;21895;47.072;15.132;2023-10-31T12:41:51;1.47;;;0.73;;
20928;SDS011;21895;47.072;15.132;2023-10-31T12:44:25;0.77;;;0.70;;
20928;SDS011;21895;47.072;15.132;2023-10-31T12:46:52;0.50;;;0.30;;
20928;SDS011;21895;47.072;15.132;2023-10-31T12:49:19;2.17;;;0.60;;
20928;SDS011;21895;47.072;15.132;2023-10-31T12:51:56;0.37;;;0.20;;
20928;SDS011;21895;47.072;15.132;2023-10-31T12:54:35;0.60;;;0.40;;
20928;SDS011;21895;47.072;15.132;2023-10-31T12:57:04;0.60;;;0.30;;
20928;SDS011;21895;47.072;15.132;2023-10-31T12:59:36;1.23;;;0.50;;
20928;SDS011;21895;47.072;15.132;2023-10-31T13:02:04;0.57;;;0.30;;
20928;SDS011;21895;47.072;15.132;2023-10-31T13:04:32;0.23;;;0.20;;
20928;SDS011;21895;47.072;15.132;2023-10-31T13:07:03;0.67;;;0.30;;
20928;SDS011;21895;47.072;15.132;2023-10-31T13:09:32;0.50;;;0.50;;
20928;SDS011;21895;47.072;15.132;2023-10-31T13:12:08;0.63;;;0.50;;
20928;SDS011;21895;47.072;15.132;2023-10-31T13:14:36;1.17;;;0.53;;
20928;SDS011;21895;47.072;15.132;2023-10-31T13:17:04;1.13;;;0.60;;
20928;SDS011;21895;47.072;15.132;2023-10-31T13:19:32;1.47;;;0.47;;
20928;SDS011;21895;47.072;15.132;2023-10-31T13:21:58;19.07;;;1.10;;
20928;SDS011;21895;47.072;15.132;2023-10-31T13:24:25;3.03;;;1.13;;
20928;SDS011;21895;47.072;15.132;2023-10-31T13:26:51;1.20;;;0.80;;
20928;SDS011;21895;47.072;15.132;2023-10-31T13:29:19;1.27;;;0.63;;
20928;SDS011;21895;47.072;15.132;2023-10-31T13:31:46;0.60;;;0.40;;
20928;SDS011;21895;47.072;15.132;2023-10-31T13:34:13;0.30;;;0.30;;
20928;SDS011;21895;47.072;15.132;2023-10-31T13:36:39;0.43;;;0.40;;
20928;SDS011;21895;47.072;15.132;2023-10-31T13:39:06;1.30;;;0.50;;
20928;SDS011;21895;47.072;15.132;2023-10-31T13:41:34;0.90;;;0.60;;
20928;SDS011;21895;47.072;15.132;2023-10-31T13:44:00;0.90;;;0.40;;
20928;SDS011;21895;47.072;15.132;2023-10-31T13:46:29;0.53;;;0.30;;
20928;SDS011;21895;47.072;15.132;2023-10-31T13:48:55;0.20;;;0.20;;
20928;SDS011;21895;47.072;15.132;2023-10-31T13:51:22;0.50;;;0.50;;
20928;SDS011;21895;47.072;15.132;2023-10-31T13:53:48;0.60;;;0.60;;
20928;SDS011;21895;47.072;15.132;2023-10-31T13:56:15;0.60;;;0.53;;
20928;SDS011;21895;47.072;15.132;2023-10-31T13:58:42;2.40;;;0.90;;
20928;SDS011;21895;47.072;15.132;2023-10-31T14:01:09;1.10;;;0.70;;
20928;SDS011;21895;47.072;15.132;2023-10-31T14:03:36;1.40;;;0.83;;
20928;SDS011;21895;47.072;15.132;2023-10-31T14:06:02;0.67;;;0.50;;
20928;SDS011;21895;47.072;15.132;2023-10-31T14:08:30;0.93;;;0.77;;
20928;SDS011;21895;47.072;15.132;2023-10-31T14:10:56;4.30;;;0.63;;
20928;SDS011;21895;47.072;15.132;2023-10-31T14:13:23;1.40;;;0.87;;
20928;SDS011;21895;47.072;15.132;2023-10-31T14:15:49;0.40;;;0.40;;
20928;SDS011;21895;47.072;15.132;2023-10-31T14:18:16;0.87;;;0.50;;
20928;SDS011;21895;47.072;15.132;2023-10-31T14:20:43;0.50;;;0.50;;
20928;SDS011;21895;47.072;15.132;2023-10-31T14:23:09;0.97;;;0.67;;
20928;SDS011;21895;47.072;15.132;2023-10-31T14:25:36;2.30;;;1.00;;
20928;SDS011;21895;47.072;15.132;2023-10-31T14:28:04;2.67;;;0.63;;
20928;SDS011;21895;47.072;15.132;2023-10-31T14:30:31;0.60;;;0.30;;
20928;SDS011;21895;47.072;15.132;2023-10-31T14:32:59;0.50;;;0.50;;
20928;SDS011;21895;47.072;15.132;2023-10-31T14:35:26;1.90;;;0.70;;
20928;SDS011;21895;47.072;15.132;2023-10-31T14:37:53;2.03;;;0.63;;
20928;SDS011;21895;47.072;15.132;2023-10-31T14:40:19;1.00;;;0.60;;